首页
METAR-TAF:

METAR-TAF

机场 :

子午线, 密西西比州, 美国

纬度: 32-32-47N, 经度: 088-32-35W, 海拔: 96米

当前天气观测

该预报发布于30分钟前的00:03 UTC
风速8节,风向东南
温度 23°C
湿度 94%
气压 1012 hPa
能見度: 9.7公里
散云层高于1300英尺, 积雨云.
多云层高于2900英尺
阴天层高于7000英尺
雷暴, 小雨

METAR: KNMM 270003Z COR 13008KT 6SM -TSRA SCT013CB BKN029 OVC070 23/22 A2989 RMK AO2 OCNL LTGICCCCG VC SW TS SW MOV NE P0001 T02330222

时间: 19:33 (00:33 UTC)

预报

预报有效从26日的 23点(UTC)到 27日的 23点(UTC)
风速8节,风向东转东南
能见度10公里或以上
散云层高于1500英尺, 积雨云.
散云层高于3500英尺
多云层高于8000英尺
阴天层高于25000英尺
附近有雷暴
短暂存在
从 26日的 23点(UTC)到 27日的 04点(UTC)
风速20节,风向多变,有时为30节阵风
能見度: 1200
多云层高于1500英尺, 积雨云.
阴天层高于3500英尺
雷暴, 大雨, 轻雾
从 27日的 0600点(UTC)
风速4节,风向东转东南
能見度: 3200
阴天层高于500英尺
轻雾
从 27日的 1400点(UTC)
风速6节,风向东南
能见度10公里或以上
多云层高于1200英尺
阴天层高于2000英尺
从 27日的 1800点(UTC)
风速8节,风向东南
能見度: 2712
少量云层高于2000英尺, 积雨云.
散云层高于4500英尺
多云层高于14000英尺
多云层高于25000英尺
附近有雷暴

TAF: KNMM 2623/2723 11008KT 9999 VCTS SCT015CB SCT035 BKN080 OVC250 QNH2986INS TEMPO 2623/2704 VRB20G30KT 1200 +TSRA BR BKN015CB OVC035 FM270600 12004KT 3200 BR OVC005 QNH2988INS FM271400 13006KT 9999 BKN012 OVC020 QNH2993INS FM271800 14008KT 9999 VCTS FEW020CB SCT045 BKN140 BKN250 QNH2989INS AUTOMATED SENSOR METWATCH 2705 TIL 2712 T19/2712Z T27/2721Z FN20037

超过4000个机场的气象观测和天气预报(METAR&TAF报告)。

可查询的气象台以黄色和红色小点在地图上表示。

将鼠标移到小点上方,可查看气象台名称。

然后点击查看天气观测和预报。

如需切换地图:点击带黑十字的绿色按钮放大地图;点击带横线的绿色按钮缩小地图;或者点击绿色箭头查看邻近地区的地图。


METAR-TAF: